Time;durP1;ratioP1;P1;durP2;ratioP2;P2;SDS_P1;SDS_P2;PMS_P1;PMS_P2;Temp;Humidity;BMP_temperature;BMP_pressure;BME280_temperature;BME280_humidity;BME280_pressure;Samples;Min_cycle;Max_cycle;Signal;HPM_P1;HPM_P2
2022/12/14 00:05:03;;;;;;;0.20;0.00;;;12.50;99.90;;;;;;21028390;28;20400;-71
2022/12/14 00:15:10;;;;;;;0.20;0.10;;;12.50;99.90;;;;;;21024218;28;20707;-72
2022/12/14 00:25:13;;;;;;;0.20;0.10;;;12.60;99.90;;;;;;21024895;28;20706;-72
2022/12/14 00:35:19;;;;;;;0.20;0.10;;;13.00;99.90;;;;;;21025439;28;20399;-71
2022/12/14 00:45:23;;;;;;;0.20;0.00;;;13.20;99.90;;;;;;21030306;28;20396;-72
2022/12/14 00:55:29;;;;;;;0.20;0.00;;;12.80;99.90;;;;;;21027564;28;20767;-74
2022/12/14 01:05:34;;;;;;;0.20;0.00;;;12.70;99.90;;;;;;21028672;28;20412;-72
2022/12/14 01:15:40;;;;;;;0.20;0.03;;;12.80;99.90;;;;;;21009520;28;20443;-73
2022/12/14 01:25:43;;;;;;;0.20;0.10;;;12.70;99.90;;;;;;21026043;28;20423;-72
2022/12/14 01:35:52;;;;;;;0.20;0.10;;;12.80;99.90;;;;;;21008001;28;20424;-72
2022/12/14 01:45:57;;;;;;;0.20;0.10;;;12.80;99.90;;;;;;21025563;28;20393;-73
2022/12/14 01:56:04;;;;;;;0.20;0.10;;;12.40;99.90;;;;;;21025434;28;20792;-72
2022/12/14 02:06:12;;;;;;;0.20;0.10;;;12.40;99.90;;;;;;20942592;28;20490;-72
2022/12/14 02:16:17;;;;;;;0.20;0.00;;;12.60;99.90;;;;;;20940919;28;20472;-72
2022/12/14 02:27:00;;;;;;;0.20;0.03;;;12.60;99.90;;;;;;20940643;28;20460;-71
2022/12/14 02:37:15;;;;;;;0.20;0.10;;;12.60;99.90;;;;;;20914777;28;20968;-71
2022/12/14 02:47:26;;;;;;;0.20;0.07;;;12.90;99.90;;;;;;20936854;28;20839;-71
2022/12/14 02:57:37;;;;;;;0.20;0.10;;;12.60;99.90;;;;;;20940196;28;20414;-71
2022/12/14 03:07:45;;;;;;;0.20;0.10;;;12.70;99.90;;;;;;20937611;28;20759;-71
2022/12/14 03:17:57;;;;;;;0.20;0.10;;;12.50;99.90;;;;;;20939523;28;20468;-72
2022/12/14 03:28:06;;;;;;;0.20;0.00;;;12.40;99.90;;;;;;20953128;28;20413;-72
2022/12/14 03:38:16;;;;;;;0.20;0.10;;;12.40;99.90;;;;;;20934199;28;21291;-72
2022/12/14 03:48:30;;;;;;;0.20;0.00;;;12.40;99.90;;;;;;20933097;28;20398;-73
2022/12/14 03:58:41;;;;;;;0.20;0.10;;;12.60;99.90;;;;;;20931081;28;20911;-71
2022/12/14 04:08:50;;;;;;;0.20;0.10;;;12.80;99.90;;;;;;20947208;28;20473;-73
2022/12/14 04:19:00;;;;;;;0.20;0.08;;;12.70;99.90;;;;;;20981589;28;20396;-73
2022/12/14 04:39:37;;;;;;;0.20;0.10;;;12.50;99.90;;;;;;21031544;28;20408;-73
2022/12/14 04:49:48;;;;;;;0.20;0.10;;;12.40;99.90;;;;;;21029901;28;20411;-74
2022/12/14 04:59:55;;;;;;;0.20;0.00;;;12.50;99.90;;;;;;21009341;28;20427;-73
2022/12/14 05:10:03;;;;;;;0.20;0.07;;;12.50;99.90;;;;;;21020731;28;20506;-75
2022/12/14 05:20:16;;;;;;;0.20;0.10;;;12.50;99.90;;;;;;21018893;28;20408;-74
2022/12/14 05:30:20;;;;;;;0.20;0.10;;;12.60;99.90;;;;;;21024321;28;20400;-75
2022/12/14 05:40:25;;;;;;;0.20;0.00;;;12.70;99.90;;;;;;21008889;28;20404;-74
2022/12/14 05:50:30;;;;;;;0.20;0.10;;;12.70;99.90;;;;;;21023648;28;20405;-74
2022/12/14 06:00:35;;;;;;;0.20;0.00;;;13.00;99.90;;;;;;21023194;28;20411;-75
2022/12/14 06:10:39;;;;;;;0.20;0.10;;;13.00;99.90;;;;;;21022228;28;20483;-74
2022/12/14 06:20:44;;;;;;;0.20;0.00;;;12.60;99.90;;;;;;21023323;28;20404;-75
2022/12/14 06:30:48;;;;;;;0.20;0.10;;;12.70;99.90;;;;;;21005723;28;20388;-74
2022/12/14 06:40:54;;;;;;;0.20;0.10;;;12.50;99.90;;;;;;21058869;28;20405;-76
2022/12/14 06:51:00;;;;;;;0.20;0.00;;;12.40;99.90;;;;;;21153282;27;20393;-72
2022/12/14 07:01:08;;;;;;;0.20;0.10;;;12.40;99.90;;;;;;21181675;27;20409;-73
2022/12/14 07:11:14;;;;;;;0.20;0.00;;;12.80;99.90;;;;;;21204051;27;20454;-72
2022/12/14 07:21:20;;;;;;;0.20;0.10;;;12.20;99.90;;;;;;21187597;27;20436;-74
2022/12/14 07:31:27;;;;;;;0.20;0.10;;;12.50;99.90;;;;;;21185633;27;20716;-73
2022/12/14 07:41:32;;;;;;;0.20;0.00;;;12.40;99.90;;;;;;21183628;27;20520;-73
2022/12/14 07:51:39;;;;;;;0.20;0.10;;;12.50;99.90;;;;;;21183904;27;20401;-74
2022/12/14 08:01:45;;;;;;;0.20;0.10;;;12.30;99.90;;;;;;21201147;27;20430;-75
2022/12/14 08:11:49;;;;;;;0.20;0.00;;;12.70;99.90;;;;;;21179049;27;20397;-72
2022/12/14 08:21:55;;;;;;;0.20;0.00;;;13.30;99.90;;;;;;21200278;27;20413;-75
2022/12/14 08:31:58;;;;;;;0.20;0.00;;;13.70;99.90;;;;;;21198144;27;20397;-73
2022/12/14 08:42:04;;;;;;;0.20;0.10;;;14.10;99.90;;;;;;21181038;27;20405;-73
2022/12/14 08:52:09;;;;;;;0.20;0.00;;;14.50;99.90;;;;;;21196948;27;20475;-74
2022/12/14 09:02:15;;;;;;;0.20;0.10;;;14.90;99.90;;;;;;21176717;27;20894;-72
2022/12/14 09:12:19;;;;;;;0.20;0.00;;;15.00;99.90;;;;;;21194663;27;20451;-72
2022/12/14 09:22:24;;;;;;;0.20;0.10;;;15.70;99.90;;;;;;21122009;27;20865;-71
2022/12/14 09:32:29;;;;;;;0.20;0.10;;;15.60;99.90;;;;;;21109794;28;20387;-72
2022/12/14 09:42:50;;;;;;;0.20;0.10;;;16.80;99.90;;;;;;21084872;28;20409;-73
2022/12/14 09:52:56;;;;;;;0.20;0.00;;;16.70;99.90;;;;;;21074299;27;20400;-74
2022/12/14 10:03:25;;;;;;;0.20;0.00;;;17.20;99.90;;;;;;21163453;27;20408;-73
2022/12/14 10:13:44;;;;;;;1.70;1.70;;;18.10;99.90;;;;;;21156990;27;20859;-73
2022/12/14 10:23:53;;;;;;;0.20;0.00;;;18.10;99.90;;;;;;21159853;28;20393;-73
2022/12/14 10:34:02;;;;;;;0.20;0.03;;;18.00;99.90;;;;;;21202462;27;20465;-72
2022/12/14 10:44:22;;;;;;;0.20;0.00;;;18.20;99.90;;;;;;21164553;27;20826;-73
2022/12/14 10:54:31;;;;;;;0.20;0.00;;;17.60;99.90;;;;;;21170938;27;20906;-74
2022/12/14 11:04:39;;;;;;;0.20;0.10;;;17.80;99.90;;;;;;21190199;27;20767;-73
2022/12/14 11:14:53;;;;;;;0.20;0.10;;;17.80;99.90;;;;;;21173490;27;20408;-74
2022/12/14 11:24:59;;;;;;;0.20;0.00;;;18.50;99.90;;;;;;21188468;27;20446;-74
2022/12/14 11:35:03;;;;;;;0.20;0.00;;;19.30;99.90;;;;;;21187399;27;20414;-72
2022/12/14 11:45:29;;;;;;;0.20;0.00;;;19.40;99.90;;;;;;21175595;27;20555;-76
2022/12/14 11:55:37;;;;;;;0.20;0.10;;;20.40;99.90;;;;;;21174505;27;20409;-76
2022/12/14 12:05:44;;;;;;;0.20;0.00;;;20.90;99.90;;;;;;21177644;27;20448;-75
2022/12/14 12:15:52;;;;;;;0.20;0.07;;;20.50;99.90;;;;;;21196774;27;20409;-76
2022/12/14 12:26:00;;;;;;;0.20;0.10;;;19.30;99.90;;;;;;21157108;27;20391;-70
2022/12/14 12:36:05;;;;;;;0.20;0.10;;;20.10;99.90;;;;;;21191330;27;20405;-74
2022/12/14 12:46:15;;;;;;;0.20;0.00;;;20.20;99.90;;;;;;21195788;27;20388;-77
2022/12/14 12:56:24;;;;;;;0.20;0.03;;;20.30;99.90;;;;;;21196424;27;20413;-77
2022/12/14 13:06:33;;;;;;;0.20;0.00;;;19.70;99.90;;;;;;21186800;27;20401;-76
2022/12/14 13:16:40;;;;;;;0.20;0.00;;;19.70;99.90;;;;;;21160602;27;20405;-75
2022/12/14 13:27:26;;;;;;;0.20;0.00;;;19.60;99.90;;;;;;21182871;27;20393;-75
2022/12/14 13:37:55;;;;;;;0.20;0.00;;;19.20;99.90;;;;;;21154165;27;20412;-74
2022/12/14 13:48:00;;;;;;;0.20;0.00;;;19.30;99.90;;;;;;21154310;27;20438;-76
2022/12/14 13:58:20;;;;;;;0.20;0.00;;;19.30;99.90;;;;;;21175612;27;20786;-77
2022/12/14 14:08:30;;;;;;;0.20;0.10;;;19.50;99.90;;;;;;21172455;27;20396;-76
2022/12/14 14:18:53;;;;;;;0.20;0.10;;;19.70;99.90;;;;;;21183239;27;20407;-76
2022/12/14 14:29:22;;;;;;;0.20;0.00;;;20.80;99.90;;;;;;21099931;28;20436;-75
2022/12/14 14:39:37;;;;;;;0.20;0.10;;;20.80;99.90;;;;;;21120092;28;20516;-75
2022/12/14 14:50:03;;;;;;;0.20;0.00;;;19.00;99.90;;;;;;21183868;28;20481;-75
2022/12/14 15:00:12;;;;;;;0.20;0.10;;;18.00;99.90;;;;;;21166570;28;21340;-77
2022/12/14 15:10:24;;;;;;;0.20;0.10;;;18.00;99.90;;;;;;21170078;28;20432;-76
2022/12/14 15:20:30;;;;;;;0.20;0.10;;;17.70;99.90;;;;;;21177949;27;20408;-77
2022/12/14 15:30:35;;;;;;;0.20;0.00;;;17.60;99.90;;;;;;21141044;27;20397;-76
2022/12/14 15:40:41;;;;;;;0.20;0.07;;;17.10;99.90;;;;;;21181985;27;20409;-76
2022/12/14 15:50:46;;;;;;;0.20;0.10;;;16.40;99.90;;;;;;21199816;27;20408;-77
2022/12/14 16:00:52;;;;;;;0.20;0.10;;;16.00;99.90;;;;;;21173240;27;20416;-76
2022/12/14 16:10:59;;;;;;;0.20;0.00;;;15.70;99.90;;;;;;21164792;27;20505;-70
2022/12/14 16:21:27;;;;;;;0.20;0.10;;;15.10;99.90;;;;;;21158976;27;20606;-71
2022/12/14 16:31:31;;;;;;;0.20;0.00;;;15.20;99.90;;;;;;21165621;27;20393;-76
2022/12/14 16:41:37;;;;;;;0.20;0.10;;;15.00;99.90;;;;;;21134042;27;20410;-77
2022/12/14 16:51:41;;;;;;;0.20;0.10;;;14.80;99.90;;;;;;21104216;27;20412;-77
2022/12/14 17:02:28;;;;;;;0.20;0.00;;;14.50;99.90;;;;;;21081069;27;20507;-75
2022/12/14 17:12:33;;;;;;;0.20;0.10;;;14.60;99.90;;;;;;21118826;27;20389;-72
2022/12/14 17:22:38;;;;;;;0.20;0.10;;;14.10;99.90;;;;;;21155485;27;20409;-74
2022/12/14 17:32:43;;;;;;;0.20;0.10;;;13.80;99.90;;;;;;21174682;27;20731;-72
2022/12/14 17:42:52;;;;;;;0.20;0.07;;;13.80;99.90;;;;;;21182268;27;20713;-74
2022/12/14 17:52:56;;;;;;;0.20;0.10;;;13.60;99.90;;;;;;21150651;27;20483;-75
2022/12/14 18:03:02;;;;;;;0.20;0.00;;;13.80;99.90;;;;;;21166450;27;20415;-73
2022/12/14 18:13:06;;;;;;;0.20;0.10;;;13.70;99.90;;;;;;21185321;27;20466;-73
2022/12/14 18:23:14;;;;;;;0.20;0.10;;;13.30;99.90;;;;;;21147441;28;20396;-74
2022/12/14 18:33:21;;;;;;;0.20;0.00;;;13.20;99.90;;;;;;21137535;28;20494;-73
2022/12/14 18:43:27;;;;;;;0.20;0.10;;;13.00;99.90;;;;;;21100831;28;20482;-74
2022/12/14 18:53:32;;;;;;;0.20;0.10;;;13.00;99.90;;;;;;21084289;28;20479;-74
2022/12/14 19:03:38;;;;;;;0.20;0.00;;;12.60;99.90;;;;;;21081731;27;21116;-75
2022/12/14 19:13:44;;;;;;;0.20;0.10;;;12.60;99.90;;;;;;21148200;27;20866;-72
2022/12/14 19:23:49;;;;;;;0.20;0.10;;;12.60;99.90;;;;;;21181180;27;20393;-74
2022/12/14 19:33:57;;;;;;;0.20;0.10;;;12.40;99.90;;;;;;21178994;27;20411;-76
2022/12/14 19:44:02;;;;;;;0.20;0.10;;;12.70;99.90;;;;;;21173327;27;20409;-73
2022/12/14 19:54:07;;;;;;;0.20;0.10;;;13.00;99.90;;;;;;21200725;27;20821;-75
2022/12/14 20:04:12;;;;;;;0.20;0.00;;;13.50;99.90;;;;;;21173155;27;20404;-75
2022/12/14 20:14:16;;;;;;;0.20;0.10;;;13.50;99.90;;;;;;21198882;27;20409;-74
2022/12/14 20:24:22;;;;;;;0.20;0.10;;;13.30;99.90;;;;;;21178883;27;20386;-73
2022/12/14 20:34:27;;;;;;;0.20;0.10;;;13.10;99.90;;;;;;21197289;27;21265;-75
2022/12/14 20:44:33;;;;;;;0.20;0.00;;;12.90;99.90;;;;;;21236475;27;20397;-73
2022/12/14 20:54:38;;;;;;;0.20;0.10;;;12.90;99.90;;;;;;21177296;27;20433;-74
2022/12/14 21:04:43;;;;;;;0.20;0.10;;;12.60;99.90;;;;;;21174854;27;20400;-74
2022/12/14 21:14:48;;;;;;;0.20;0.00;;;12.40;99.90;;;;;;21191961;27;20480;-74
2022/12/14 21:24:53;;;;;;;0.20;0.10;;;12.50;99.90;;;;;;21157973;27;20504;-73
2022/12/14 21:35:10;;;;;;;0.20;0.00;;;12.40;99.90;;;;;;21218400;27;21116;-74
2022/12/14 21:45:15;;;;;;;0.20;0.10;;;12.10;99.90;;;;;;21245715;27;20416;-74
2022/12/14 21:55:19;;;;;;;0.20;0.00;;;12.10;99.90;;;;;;21150560;27;20415;-75
2022/12/14 22:05:25;;;;;;;0.20;0.00;;;12.30;99.90;;;;;;21173789;27;20389;-76
2022/12/14 22:15:28;;;;;;;0.20;0.10;;;11.90;99.90;;;;;;21172980;27;20405;-75
2022/12/14 22:25:34;;;;;;;0.20;0.00;;;11.60;99.90;;;;;;21173401;27;20926;-76
2022/12/14 22:35:40;;;;;;;0.20;0.00;;;12.10;99.90;;;;;;21191016;27;20414;-76
2022/12/14 22:45:45;;;;;;;0.20;0.10;;;12.40;99.90;;;;;;21105872;28;20428;-76
2022/12/14 22:55:50;;;;;;;0.20;0.10;;;12.60;99.90;;;;;;21107576;28;20592;-76
2022/12/14 23:05:55;;;;;;;0.20;0.00;;;12.70;99.90;;;;;;21110794;28;20396;-76
